createdAt,value
2022-08-16T00:02:31.650Z,5.63
2022-08-16T00:05:00.100Z,5.20
2022-08-16T00:07:29.442Z,5.40
2022-08-16T00:09:57.917Z,5.85
2022-08-16T00:12:30.479Z,5.80
2022-08-16T00:14:59.070Z,5.28
2022-08-16T00:17:26.516Z,5.60
2022-08-16T00:19:55.631Z,5.60
2022-08-16T00:22:24.919Z,5.78
2022-08-16T00:24:54.402Z,6.18
2022-08-16T00:27:22.921Z,5.80
2022-08-16T00:30:08.303Z,6.10
2022-08-16T00:32:38.487Z,6.25
2022-08-16T00:35:13.287Z,5.85
2022-08-16T00:37:58.896Z,5.78
2022-08-16T00:40:33.995Z,5.87
2022-08-16T00:43:04.421Z,6.03
2022-08-16T00:46:32.975Z,6.00
2022-08-16T00:48:56.332Z,5.95
2022-08-16T00:51:25.315Z,6.00
2022-08-16T00:53:58.327Z,5.95
2022-08-16T00:56:57.573Z,6.57
2022-08-16T00:59:17.208Z,6.45
2022-08-16T01:01:45.482Z,6.53
2022-08-16T01:04:29.177Z,6.47
2022-08-16T01:07:01.189Z,6.43
2022-08-16T01:09:33.668Z,6.40
2022-08-16T01:12:02.567Z,6.28
2022-08-16T01:14:33.575Z,5.97
2022-08-16T01:17:01.403Z,6.20
2022-08-16T01:19:34.274Z,6.63
2022-08-16T01:22:49.543Z,5.80
2022-08-16T01:25:18.597Z,6.40
2022-08-16T01:27:54.861Z,6.32
2022-08-16T01:30:32.082Z,5.73
2022-08-16T01:33:14.610Z,6.70
2022-08-16T01:35:52.557Z,6.22
2022-08-16T01:38:40.019Z,7.15
2022-08-16T01:41:19.851Z,6.18
2022-08-16T01:43:54.312Z,6.72
2022-08-16T01:46:39.601Z,6.53
2022-08-16T01:49:43.156Z,6.75
2022-08-16T01:52:29.830Z,6.80
2022-08-16T01:54:58.095Z,6.28
2022-08-16T01:57:27.253Z,6.75
2022-08-16T01:59:54.588Z,6.53
2022-08-16T02:02:27.317Z,6.30
2022-08-16T02:04:56.403Z,6.50
2022-08-16T02:07:25.534Z,7.15
2022-08-16T02:09:57.157Z,6.13
2022-08-16T02:12:39.875Z,6.50
2022-08-16T02:15:15.681Z,6.32
2022-08-16T02:17:43.382Z,6.80
2022-08-16T02:20:12.049Z,7.30
2022-08-16T02:22:39.622Z,6.75
2022-08-16T02:25:14.775Z,6.97
2022-08-16T02:27:44.199Z,6.60
2022-08-16T02:30:35.690Z,6.65
2022-08-16T02:33:03.957Z,6.63
2022-08-16T02:35:31.469Z,6.88
2022-08-16T02:38:01.683Z,6.40
2022-08-16T02:40:35.664Z,6.85
2022-08-16T02:43:02.911Z,6.35
2022-08-16T02:45:29.750Z,6.82
2022-08-16T02:48:00.409Z,6.40
2022-08-16T02:51:04.119Z,6.20
2022-08-16T02:53:18.182Z,6.72
2022-08-16T02:55:45.261Z,7.03
2022-08-16T02:58:17.623Z,6.72
2022-08-16T03:00:45.594Z,7.40
2022-08-16T03:03:18.251Z,7.35
2022-08-16T03:05:50.060Z,6.65
2022-08-16T03:11:16.672Z,6.82
2022-08-16T03:13:51.374Z,6.88
2022-08-16T03:16:36.631Z,7.32
2022-08-16T03:19:07.368Z,6.75
2022-08-16T03:21:37.473Z,6.72
2022-08-16T03:24:28.690Z,7.40
2022-08-16T03:26:59.954Z,7.18
2022-08-16T03:29:32.381Z,7.13
2022-08-16T03:32:01.218Z,7.05
2022-08-16T03:34:29.209Z,7.13
2022-08-16T03:36:57.675Z,7.45
2022-08-16T03:39:24.589Z,7.03
2022-08-16T03:41:59.705Z,7.20
2022-08-16T03:44:44.646Z,6.65
2022-08-16T03:47:19.199Z,6.97
2022-08-16T03:49:51.217Z,6.60
2022-08-16T03:52:23.714Z,6.38
2022-08-16T03:54:57.902Z,6.85
2022-08-16T03:57:31.645Z,6.47
2022-08-16T04:00:20.288Z,6.65
2022-08-16T04:03:07.720Z,6.60
2022-08-16T04:05:40.464Z,6.60
2022-08-16T04:08:23.099Z,6.78
2022-08-16T04:10:53.619Z,6.63
2022-08-16T04:14:00.155Z,6.20
2022-08-16T04:16:09.587Z,6.40
2022-08-16T04:18:54.593Z,6.53
2022-08-16T04:21:29.834Z,6.47
2022-08-16T04:23:56.798Z,6.55
2022-08-16T04:26:23.741Z,6.88
2022-08-16T04:28:53.659Z,7.25
2022-08-16T04:31:24.669Z,6.95
2022-08-16T04:33:51.601Z,7.07
2022-08-16T04:36:20.532Z,6.80
2022-08-16T04:38:50.151Z,6.82
2022-08-16T04:41:19.432Z,6.80
2022-08-16T04:44:00.478Z,6.75
2022-08-16T04:47:01.186Z,7.00
2022-08-16T04:49:14.379Z,6.82
2022-08-16T04:51:41.567Z,7.13
2022-08-16T04:54:09.286Z,6.93
2022-08-16T04:56:42.870Z,6.93
2022-08-16T04:59:17.015Z,6.65
2022-08-16T05:01:58.277Z,7.18
2022-08-16T05:04:26.235Z,6.63
2022-08-16T05:06:57.263Z,6.95
2022-08-16T05:09:24.427Z,7.53
2022-08-16T05:11:51.610Z,7.35
2022-08-16T05:14:20.219Z,7.13
2022-08-16T05:17:05.925Z,6.35
2022-08-16T05:19:36.230Z,6.20
2022-08-16T05:22:03.841Z,6.13
2022-08-16T05:24:31.613Z,6.53
2022-08-16T05:26:58.431Z,6.18
2022-08-16T05:29:57.707Z,6.78
2022-08-16T05:32:32.883Z,6.55
2022-08-16T05:35:00.099Z,5.85
2022-08-16T05:37:28.759Z,6.70
2022-08-16T05:40:07.850Z,6.55
2022-08-16T05:42:36.000Z,6.93
2022-08-16T05:45:06.893Z,7.78
2022-08-16T05:47:33.873Z,7.13
2022-08-16T05:50:19.158Z,6.45
2022-08-16T05:52:46.606Z,6.65
2022-08-16T05:55:13.774Z,5.82
2022-08-16T05:57:40.540Z,6.78
2022-08-16T06:00:12.075Z,6.03
2022-08-16T06:02:38.909Z,6.18
2022-08-16T06:05:07.087Z,6.43
2022-08-16T06:07:38.711Z,7.28
2022-08-16T06:10:07.294Z,6.40
2022-08-16T06:12:36.913Z,6.28
2022-08-16T06:15:10.090Z,6.15
2022-08-16T06:17:42.929Z,6.40
2022-08-16T06:20:24.205Z,6.43
2022-08-16T06:22:59.074Z,6.25
2022-08-16T06:25:36.808Z,6.40
2022-08-16T06:28:09.422Z,6.40
2022-08-16T06:30:43.931Z,6.47
2022-08-16T06:33:22.229Z,5.80
2022-08-16T06:35:50.776Z,5.80
2022-08-16T06:38:33.496Z,5.63
2022-08-16T06:41:13.654Z,6.10
2022-08-16T06:43:41.156Z,5.85
2022-08-16T06:46:10.873Z,7.70
2022-08-16T06:48:43.158Z,6.03
2022-08-16T06:51:10.478Z,5.95
2022-08-16T06:53:37.313Z,5.57
2022-08-16T06:56:14.241Z,5.60
2022-08-16T06:58:51.625Z,5.55
2022-08-16T07:01:24.609Z,5.43
2022-08-16T07:04:10.397Z,5.60
2022-08-16T07:06:40.571Z,4.90
2022-08-16T07:09:11.551Z,5.10
2022-08-16T07:11:48.089Z,4.93
2022-08-16T07:14:25.148Z,4.40
2022-08-16T07:16:58.378Z,4.63
2022-08-16T07:20:01.278Z,4.57
2022-08-16T07:22:37.942Z,4.57
2022-08-16T07:25:02.227Z,4.50
2022-08-16T07:27:29.269Z,4.97
2022-08-16T07:30:00.782Z,4.32
2022-08-16T07:32:29.647Z,4.07
2022-08-16T07:34:58.839Z,4.50
2022-08-16T07:37:25.927Z,4.03
2022-08-16T07:39:54.666Z,3.92
2022-08-16T07:42:28.255Z,4.15
2022-08-16T07:45:02.499Z,4.10
2022-08-16T07:47:31.283Z,4.00
2022-08-16T07:49:59.280Z,4.25
2022-08-16T07:52:29.632Z,4.10
2022-08-16T07:54:57.909Z,4.13
2022-08-16T07:57:24.988Z,3.80
2022-08-16T07:59:52.172Z,3.80
2022-08-16T08:02:20.069Z,4.07
2022-08-16T08:04:48.530Z,3.80
2022-08-16T08:07:16.508Z,4.20
2022-08-16T08:09:44.204Z,4.30
2022-08-16T08:12:32.254Z,3.85
2022-08-16T08:15:00.614Z,3.90
2022-08-16T08:17:42.538Z,3.92
2022-08-16T08:20:26.108Z,4.00
2022-08-16T08:23:01.025Z,3.60
2022-08-16T08:25:51.985Z,3.78
2022-08-16T08:28:18.056Z,3.45
2022-08-16T08:30:52.315Z,3.70
2022-08-16T08:33:27.806Z,3.65
2022-08-16T08:36:02.268Z,3.80
2022-08-16T08:38:43.643Z,3.42
2022-08-16T08:41:18.335Z,3.55
2022-08-16T08:43:47.122Z,3.40
2022-08-16T08:46:21.708Z,3.20
2022-08-16T08:48:59.772Z,3.63
2022-08-16T08:51:31.868Z,3.55
2022-08-16T08:54:09.073Z,3.08
2022-08-16T08:56:45.346Z,2.70
2022-08-16T08:59:19.908Z,3.38
2022-08-16T09:01:57.103Z,2.85
2022-08-16T09:04:26.549Z,2.90
2022-08-16T09:06:54.121Z,2.90
2022-08-16T09:09:22.274Z,3.10
2022-08-16T09:12:04.189Z,2.88
2022-08-16T09:14:35.046Z,3.03
2022-08-16T09:17:11.831Z,3.17
2022-08-16T09:19:55.183Z,2.70
2022-08-16T09:24:53.160Z,2.83
2022-08-16T09:27:25.333Z,2.50
2022-08-16T09:29:59.770Z,2.90
2022-08-16T09:32:30.545Z,2.90
2022-08-16T09:34:58.821Z,2.70
2022-08-16T09:37:29.454Z,2.80
2022-08-16T09:40:01.006Z,2.53
2022-08-16T09:42:29.037Z,2.63
2022-08-16T09:45:12.491Z,2.63
2022-08-16T09:47:56.538Z,2.50
2022-08-16T09:50:33.241Z,3.00
2022-08-16T09:53:15.346Z,2.40
2022-08-16T09:55:49.615Z,2.88
2022-08-16T09:58:41.692Z,2.60
2022-08-16T10:01:14.034Z,2.42
2022-08-16T10:04:01.547Z,2.50
2022-08-16T10:06:33.358Z,3.15
2022-08-16T10:09:05.384Z,2.90
2022-08-16T10:11:55.576Z,2.55
2022-08-16T10:14:24.775Z,2.75
2022-08-16T10:17:02.858Z,2.50
2022-08-16T10:19:31.908Z,2.97
2022-08-16T10:21:59.721Z,2.70
2022-08-16T10:24:37.215Z,3.10
2022-08-16T10:27:25.602Z,2.50
2022-08-16T10:29:59.417Z,2.65
2022-08-16T10:32:26.532Z,2.30
2022-08-16T10:34:58.377Z,2.20
2022-08-16T10:37:36.300Z,2.78
2022-08-16T10:40:28.390Z,2.40
2022-08-16T10:42:56.061Z,2.42
2022-08-16T10:45:22.985Z,2.50
2022-08-16T10:47:51.769Z,2.60
2022-08-16T10:50:30.468Z,2.40
2022-08-16T10:52:59.188Z,2.30
2022-08-16T10:55:44.463Z,2.30
2022-08-16T10:58:16.931Z,2.50
2022-08-16T11:00:46.287Z,2.53
2022-08-16T11:06:07.444Z,2.10
2022-08-16T11:08:40.732Z,2.33
2022-08-16T11:11:19.136Z,2.10
2022-08-16T11:14:06.048Z,2.00
2022-08-16T11:19:23.022Z,1.90
2022-08-16T11:24:42.572Z,2.28
2022-08-16T11:27:21.237Z,2.10
2022-08-16T11:29:53.514Z,2.10
2022-08-16T11:32:31.519Z,2.45
2022-08-16T11:35:13.285Z,2.00
2022-08-16T11:40:38.365Z,2.00
2022-08-16T11:43:06.745Z,2.00
2022-08-16T11:45:37.093Z,2.50
2022-08-16T11:48:05.155Z,1.92
2022-08-16T11:50:33.873Z,2.30
2022-08-16T11:53:05.638Z,2.00
2022-08-16T11:55:38.145Z,2.05
2022-08-16T11:58:06.898Z,2.60
2022-08-16T12:00:50.485Z,2.10
2022-08-16T12:03:29.701Z,2.30
2022-08-16T12:06:10.885Z,2.00
2022-08-16T12:08:39.111Z,1.98
2022-08-16T12:11:06.250Z,2.25
2022-08-16T12:13:33.988Z,2.03
2022-08-16T12:16:01.154Z,1.90
2022-08-16T12:18:27.886Z,1.88
2022-08-16T12:20:55.476Z,2.03
2022-08-16T12:23:25.274Z,2.17
2022-08-16T12:25:52.544Z,2.00
2022-08-16T12:28:36.641Z,2.20
2022-08-16T12:31:06.740Z,2.00
2022-08-16T12:33:44.553Z,2.20
2022-08-16T12:36:14.255Z,2.10
2022-08-16T12:38:48.025Z,2.20
2022-08-16T12:41:15.945Z,2.00
2022-08-16T12:43:52.289Z,2.05
2022-08-16T12:46:19.073Z,1.90
2022-08-16T12:48:58.166Z,2.10
2022-08-16T12:51:59.260Z,2.15
2022-08-16T12:54:27.897Z,2.20
2022-08-16T12:56:55.530Z,2.08
2022-08-16T12:59:23.680Z,1.95
2022-08-16T13:01:58.102Z,2.20
2022-08-16T13:04:26.317Z,2.20
2022-08-16T13:06:53.657Z,2.00
2022-08-16T13:09:26.179Z,1.90
2022-08-16T13:12:03.615Z,2.30
2022-08-16T13:14:38.206Z,2.13
2022-08-16T13:17:08.314Z,2.10
2022-08-16T13:20:05.903Z,3.10
2022-08-16T13:22:24.407Z,2.17
2022-08-16T13:24:52.647Z,2.45
2022-08-16T13:27:20.842Z,2.17
2022-08-16T13:30:21.863Z,2.20
2022-08-16T13:32:54.230Z,2.20
2022-08-16T13:35:22.575Z,2.05
2022-08-16T13:37:58.459Z,2.22
2022-08-16T13:40:25.366Z,2.13
2022-08-16T13:42:55.368Z,2.10
2022-08-16T13:45:25.938Z,2.08
2022-08-16T13:47:53.860Z,1.80
2022-08-16T13:50:31.209Z,2.20
2022-08-16T13:53:07.889Z,2.00
2022-08-16T13:55:35.363Z,2.05
2022-08-16T13:58:34.810Z,2.00
2022-08-16T14:00:54.590Z,1.77
2022-08-16T14:03:21.979Z,2.22
2022-08-16T14:05:52.924Z,1.90
2022-08-16T14:08:23.877Z,1.90
2022-08-16T14:10:53.683Z,2.05
2022-08-16T14:13:21.695Z,1.90
2022-08-16T14:15:49.102Z,2.13
2022-08-16T14:18:20.022Z,1.98
2022-08-16T14:20:48.653Z,1.90
2022-08-16T14:23:16.408Z,1.80
2022-08-16T14:25:54.401Z,1.90
2022-08-16T14:28:25.875Z,2.03
2022-08-16T14:30:53.602Z,1.70
2022-08-16T14:33:20.556Z,2.00
2022-08-16T14:35:50.321Z,1.75
2022-08-16T14:38:23.985Z,1.77
2022-08-16T14:40:55.101Z,1.63
2022-08-16T14:43:23.127Z,1.80
2022-08-16T14:45:50.340Z,1.70
2022-08-16T14:48:25.158Z,1.90
2022-08-16T14:50:53.050Z,2.13
2022-08-16T14:53:19.840Z,2.00
2022-08-16T14:55:48.450Z,1.95
2022-08-16T14:58:19.317Z,1.80
2022-08-16T15:00:50.638Z,1.70
2022-08-16T15:03:19.000Z,1.83
2022-08-16T15:05:48.807Z,1.70
2022-08-16T15:08:21.219Z,1.88
2022-08-16T15:11:03.165Z,1.90
2022-08-16T15:13:30.032Z,1.90
2022-08-16T15:16:02.238Z,1.60
2022-08-16T15:18:31.798Z,1.73
2022-08-16T15:21:04.167Z,1.80
2022-08-16T15:23:34.042Z,1.60
2022-08-16T15:26:03.449Z,1.80
2022-08-16T15:28:32.839Z,1.85
2022-08-16T15:31:04.714Z,1.90
2022-08-16T15:33:35.941Z,1.65
2022-08-16T15:36:07.725Z,1.77
2022-08-16T15:39:02.667Z,2.20
2022-08-16T15:41:43.069Z,1.60
2022-08-16T15:44:21.189Z,2.10
2022-08-16T15:46:56.134Z,1.60
2022-08-16T15:49:34.357Z,2.10
2022-08-16T15:52:10.508Z,2.67
2022-08-16T15:54:51.433Z,1.77
2022-08-16T15:57:22.375Z,1.92
2022-08-16T15:59:52.742Z,1.70
2022-08-16T16:02:29.227Z,1.73
2022-08-16T16:05:00.644Z,1.70
2022-08-16T16:07:30.358Z,1.80
2022-08-16T16:09:59.400Z,1.75
2022-08-16T16:15:16.925Z,1.80
2022-08-16T16:17:44.182Z,1.55
2022-08-16T16:20:18.641Z,1.90
2022-08-16T16:22:46.769Z,1.70
2022-08-16T16:25:16.101Z,1.77
2022-08-16T16:27:45.220Z,1.60
2022-08-16T16:30:32.866Z,3.47
2022-08-16T16:33:02.322Z,2.15
2022-08-16T16:35:30.819Z,1.70
2022-08-16T16:37:59.802Z,1.83
2022-08-16T16:40:32.554Z,2.00
2022-08-16T16:43:00.440Z,2.40
2022-08-16T16:45:33.325Z,2.60
2022-08-16T16:50:44.574Z,5.72
2022-08-16T16:53:17.481Z,2.00
2022-08-16T16:55:47.723Z,2.17
2022-08-16T16:58:38.635Z,1.60
2022-08-16T17:01:08.345Z,1.60
2022-08-16T17:03:35.715Z,1.80
2022-08-16T17:06:09.453Z,1.80
2022-08-16T17:08:40.788Z,1.80
2022-08-16T17:11:12.780Z,1.70
2022-08-16T17:13:40.225Z,1.70
2022-08-16T17:16:09.432Z,1.95
2022-08-16T17:19:17.321Z,1.90
2022-08-16T17:21:36.795Z,2.33
2022-08-16T17:24:18.389Z,1.70
2022-08-16T17:26:49.189Z,1.50
2022-08-16T17:29:23.777Z,1.52
2022-08-16T17:32:33.218Z,2.05
2022-08-16T17:34:50.505Z,1.60
2022-08-16T17:37:17.976Z,1.63
2022-08-16T17:40:00.198Z,1.60
2022-08-16T17:42:30.850Z,1.83
2022-08-16T17:44:57.592Z,1.70
2022-08-16T17:47:24.433Z,1.85
2022-08-16T17:49:51.296Z,2.30
2022-08-16T17:52:18.261Z,2.20
2022-08-16T17:54:45.381Z,2.20
2022-08-16T17:57:12.815Z,2.63
2022-08-16T17:59:41.310Z,2.38
2022-08-16T18:02:42.066Z,2.65
2022-08-16T18:04:56.095Z,2.42
2022-08-16T18:07:22.983Z,2.30
2022-08-16T18:09:52.275Z,2.63
2022-08-16T18:12:54.323Z,2.40
2022-08-16T18:15:14.297Z,2.58
2022-08-16T18:17:42.036Z,2.30
2022-08-16T18:20:28.840Z,2.50
2022-08-16T18:23:03.576Z,2.42
2022-08-16T18:25:30.429Z,2.30
2022-08-16T18:27:57.291Z,2.47
2022-08-16T18:30:24.371Z,2.42
2022-08-16T18:32:51.746Z,2.30
2022-08-16T18:35:20.006Z,2.53
2022-08-16T18:37:47.431Z,2.40
2022-08-16T18:40:15.861Z,2.50
2022-08-16T18:43:00.993Z,2.97
2022-08-16T18:45:35.614Z,2.85
2022-08-16T18:48:05.237Z,2.97
2022-08-16T18:50:58.906Z,3.42
2022-08-16T18:53:20.940Z,3.72
2022-08-16T18:55:48.915Z,3.38
2022-08-16T18:58:16.504Z,3.00
2022-08-16T19:00:56.577Z,3.17
2022-08-16T19:03:31.762Z,3.00
2022-08-16T19:06:02.993Z,2.95
2022-08-16T19:08:30.209Z,3.70
2022-08-16T19:10:56.984Z,3.75
2022-08-16T19:13:26.771Z,2.78
2022-08-16T19:15:56.023Z,2.80
2022-08-16T19:18:23.561Z,3.00
2022-08-16T19:20:51.356Z,3.95
2022-08-16T19:23:21.036Z,4.18
2022-08-16T19:25:54.421Z,3.30
2022-08-16T19:28:49.226Z,3.22
2022-08-16T19:31:21.250Z,3.13
2022-08-16T19:33:53.683Z,3.15
2022-08-16T19:36:33.976Z,3.00
2022-08-16T19:39:11.463Z,3.38
2022-08-16T19:41:40.846Z,3.63
2022-08-16T19:44:07.978Z,3.28
2022-08-16T19:46:35.276Z,3.47
2022-08-16T19:49:02.466Z,3.33
2022-08-16T19:51:29.581Z,3.10
2022-08-16T19:53:56.296Z,2.80
2022-08-16T19:56:24.766Z,2.75
2022-08-16T19:59:17.401Z,3.38
2022-08-16T20:01:42.300Z,3.35
2022-08-16T20:04:12.877Z,3.50
2022-08-16T20:06:41.210Z,3.80
2022-08-16T20:09:08.330Z,3.70
2022-08-16T20:11:37.393Z,3.30
2022-08-16T20:14:04.656Z,3.83
2022-08-16T20:16:31.779Z,3.80
2022-08-16T20:18:59.065Z,3.50
2022-08-16T20:21:26.293Z,3.90
2022-08-16T20:24:01.291Z,3.53
2022-08-16T20:26:37.476Z,3.95
2022-08-16T20:29:04.297Z,3.42
2022-08-16T20:31:31.265Z,3.67
2022-08-16T20:33:58.342Z,3.65
2022-08-16T20:36:25.663Z,3.95
2022-08-16T20:38:52.975Z,3.50
2022-08-16T20:41:22.487Z,3.40
2022-08-16T20:43:50.696Z,3.45
2022-08-16T20:46:21.944Z,3.25
2022-08-16T20:48:48.838Z,3.30
2022-08-16T20:51:16.473Z,3.40
2022-08-16T20:53:44.549Z,3.50
2022-08-16T20:56:12.540Z,3.58
2022-08-16T20:58:39.570Z,3.40
2022-08-16T21:01:07.379Z,3.17
2022-08-16T21:03:34.923Z,3.80
2022-08-16T21:06:02.634Z,3.42
2022-08-16T21:08:53.183Z,3.53
2022-08-16T21:11:17.026Z,4.00
2022-08-16T21:13:43.895Z,3.30
2022-08-16T21:16:10.925Z,3.50
2022-08-16T21:18:37.632Z,3.80
2022-08-16T21:21:04.739Z,3.75
2022-08-16T21:23:31.572Z,3.78
2022-08-16T21:25:59.801Z,3.53
2022-08-16T21:28:36.783Z,3.60
2022-08-16T21:31:09.381Z,3.70
2022-08-16T21:33:36.369Z,3.78
2022-08-16T21:36:03.862Z,3.90
2022-08-16T21:38:31.160Z,4.60
2022-08-16T21:40:59.645Z,4.40
2022-08-16T21:43:32.657Z,4.47
2022-08-16T21:46:04.547Z,4.73
2022-08-16T21:48:35.968Z,4.47
2022-08-16T21:51:05.949Z,4.75
2022-08-16T21:53:33.407Z,4.63
2022-08-16T21:56:01.421Z,5.10
2022-08-16T21:58:29.229Z,4.80
2022-08-16T22:00:56.289Z,4.75
2022-08-16T22:03:23.708Z,4.20
2022-08-16T22:06:12.119Z,4.82
2022-08-16T22:08:48.028Z,4.45
2022-08-16T22:11:22.928Z,4.60
2022-08-16T22:13:57.723Z,4.70
2022-08-16T22:16:27.324Z,4.30
2022-08-16T22:18:54.317Z,4.35
2022-08-16T22:21:21.377Z,4.65
2022-08-16T22:23:57.820Z,5.00
2022-08-16T22:26:34.770Z,5.20
2022-08-16T22:29:04.696Z,4.55
2022-08-16T22:31:32.489Z,5.00
2022-08-16T22:33:59.621Z,4.72
2022-08-16T22:36:28.091Z,4.60
2022-08-16T22:38:58.256Z,4.30
2022-08-16T22:41:27.476Z,4.53
2022-08-16T22:43:54.230Z,4.55
2022-08-16T22:46:21.182Z,4.60
2022-08-16T22:48:51.348Z,4.60
2022-08-16T22:51:22.975Z,4.57
2022-08-16T22:53:49.947Z,4.65
2022-08-16T22:56:17.776Z,4.57
2022-08-16T22:58:45.469Z,4.72
2022-08-16T23:01:13.714Z,5.20
2022-08-16T23:03:41.473Z,4.80
2022-08-16T23:06:08.645Z,4.90
2022-08-16T23:08:40.312Z,4.65
2022-08-16T23:11:15.394Z,4.85
2022-08-16T23:13:51.486Z,4.60
2022-08-16T23:16:32.333Z,4.82
2022-08-16T23:19:03.567Z,4.75
2022-08-16T23:21:30.847Z,5.28
2022-08-16T23:23:57.651Z,5.10
2022-08-16T23:26:44.304Z,4.78
2022-08-16T23:29:15.880Z,4.70
2022-08-16T23:31:50.696Z,4.70
2022-08-16T23:34:20.813Z,5.03
2022-08-16T23:36:47.572Z,5.10
2022-08-16T23:39:14.656Z,4.93
2022-08-16T23:41:41.544Z,5.18
2022-08-16T23:44:42.136Z,5.10
2022-08-16T23:46:55.958Z,4.78
2022-08-16T23:49:57.793Z,4.82
2022-08-16T23:52:10.935Z,5.07
2022-08-16T23:54:37.894Z,5.10
2022-08-16T23:57:05.353Z,5.28
2022-08-16T23:59:38.041Z,5.07
